Time;durP1;ratioP1;P1;durP2;ratioP2;P2;SDS_P1;SDS_P2;PMS_P1;PMS_P2;Temp;Humidity;BMP_temperature;BMP_pressure;BME280_temperature;BME280_humidity;BME280_pressure;Samples;Min_cycle;Max_cycle;Signal;HPM_P1;HPM_P2
2021/05/05 00:01:15;;;;;;;3.90;2.77;;;;;;;;;;4953995;28;20629;-85
2021/05/05 00:04:19;;;;;;;3.20;2.57;;;;;;;;;;4975650;28;20179;-85
2021/05/05 00:07:23;;;;;;;2.93;2.63;;;;;;;;;;4964635;28;20183;-85
2021/05/05 00:10:27;;;;;;;4.60;2.80;;;;;;;;;;4953453;28;20535;-85
2021/05/05 00:13:31;;;;;;;5.37;3.17;;;;;;;;;;4964259;28;20175;-85
2021/05/05 00:16:36;;;;;;;4.27;3.20;;;;;;;;;;4953115;28;20219;-85
2021/05/05 00:19:40;;;;;;;4.67;2.90;;;;;;;;;;4953205;28;20183;-85
2021/05/05 00:22:44;;;;;;;3.03;2.77;;;;;;;;;;4953603;28;20211;-85
2021/05/05 00:25:48;;;;;;;4.03;3.50;;;;;;;;;;4963833;28;20242;-85
2021/05/05 00:28:58;;;;;;;3.50;3.20;;;;;;;;;;4964660;28;20199;-85
2021/05/05 00:32:03;;;;;;;3.80;3.23;;;;;;;;;;4974660;28;20207;-84
2021/05/05 00:35:08;;;;;;;2.93;2.73;;;;;;;;;;4963854;28;20218;-85
2021/05/05 00:38:12;;;;;;;6.00;4.13;;;;;;;;;;4953269;28;20206;-85
2021/05/05 00:41:19;;;;;;;3.57;3.13;;;;;;;;;;4975015;28;20183;-85
2021/05/05 00:44:24;;;;;;;3.60;2.97;;;;;;;;;;4963590;28;20175;-84
2021/05/05 00:47:28;;;;;;;3.93;2.93;;;;;;;;;;4956062;28;20534;-85
2021/05/05 00:50:32;;;;;;;5.00;3.10;;;;;;;;;;4971877;28;20182;-85
2021/05/05 00:53:39;;;;;;;3.17;2.87;;;;;;;;;;4971915;28;20178;-85
2021/05/05 00:56:44;;;;;;;3.90;3.17;;;;;;;;;;4980113;28;20223;-85
2021/05/05 00:59:48;;;;;;;4.97;3.00;;;;;;;;;;4952558;28;20179;-85
2021/05/05 01:02:53;;;;;;;3.83;3.27;;;;;;;;;;4963652;28;20202;-85
2021/05/05 01:05:58;;;;;;;4.50;3.40;;;;;;;;;;4952341;28;20222;-85
2021/05/05 01:09:04;;;;;;;5.17;3.60;;;;;;;;;;4974578;28;20190;-84
2021/05/05 01:12:09;;;;;;;5.77;3.83;;;;;;;;;;4952970;28;20175;-85
2021/05/05 01:15:16;;;;;;;4.27;3.87;;;;;;;;;;4971724;28;20217;-84
2021/05/05 01:18:21;;;;;;;4.50;4.00;;;;;;;;;;4971744;28;20183;-84
2021/05/05 01:21:25;;;;;;;6.50;4.43;;;;;;;;;;4971681;28;20522;-84
2021/05/05 01:24:33;;;;;;;5.20;4.67;;;;;;;;;;4974768;28;20179;-84
2021/05/05 01:27:37;;;;;;;5.40;4.90;;;;;;;;;;4963314;28;20193;-85
2021/05/05 01:30:45;;;;;;;6.63;5.60;;;;;;;;;;4952136;28;20541;-84
2021/05/05 01:33:49;;;;;;;6.50;5.17;;;;;;;;;;4963231;28;20171;-84
2021/05/05 01:36:54;;;;;;;6.07;5.47;;;;;;;;;;4952260;28;20222;-84
2021/05/05 01:39:58;;;;;;;6.20;5.60;;;;;;;;;;4974304;28;20183;-84
2021/05/05 01:43:05;;;;;;;6.50;5.30;;;;;;;;;;4957678;28;20584;-84
2021/05/05 01:46:10;;;;;;;8.73;6.50;;;;;;;;;;4971437;28;20217;-84
2021/05/05 01:49:18;;;;;;;7.37;6.57;;;;;;;;;;4982271;28;20198;-85
2021/05/05 01:52:22;;;;;;;8.23;6.40;;;;;;;;;;4993644;28;20182;-84
2021/05/05 01:55:26;;;;;;;10.57;6.30;;;;;;;;;;4984162;28;20222;-85
2021/05/05 01:58:33;;;;;;;7.57;6.77;;;;;;;;;;4975083;28;20198;-84
2021/05/05 02:01:38;;;;;;;6.80;5.87;;;;;;;;;;4974779;28;20186;-85
2021/05/05 02:04:45;;;;;;;6.10;5.50;;;;;;;;;;4986058;28;20170;-84
2021/05/05 02:07:57;;;;;;;3.60;3.27;;;;;;;;;;4985674;28;20665;-85
2021/05/05 02:11:01;;;;;;;3.03;2.60;;;;;;;;;;4997184;28;20183;-85
2021/05/05 02:14:07;;;;;;;1.90;1.60;;;;;;;;;;4974864;28;20174;-85
2021/05/05 02:17:11;;;;;;;1.10;1.00;;;;;;;;;;4997232;28;20186;-84
2021/05/05 02:20:19;;;;;;;1.20;1.10;;;;;;;;;;4985844;28;20178;-84
2021/05/05 02:23:24;;;;;;;1.20;0.80;;;;;;;;;;4974632;28;20210;-84
2021/05/05 02:26:29;;;;;;;1.53;1.27;;;;;;;;;;4985601;28;20218;-84
2021/05/05 02:29:33;;;;;;;1.97;1.07;;;;;;;;;;4955195;28;20187;-84
2021/05/05 02:33:10;;;;;;;2.03;0.70;;;;;;;;;;4976673;28;20194;-84
2021/05/05 02:36:15;;;;;;;1.47;0.60;;;;;;;;;;4982184;28;20237;-84
2021/05/05 02:39:21;;;;;;;2.23;0.70;;;;;;;;;;4966015;28;20203;-84
2021/05/05 02:42:28;;;;;;;1.27;0.70;;;;;;;;;;4955544;28;20195;-84
2021/05/05 02:45:33;;;;;;;0.87;0.60;;;;;;;;;;4977369;28;20226;-84
2021/05/05 02:48:37;;;;;;;1.23;0.50;;;;;;;;;;4985232;28;20195;-84
2021/05/05 02:51:41;;;;;;;3.33;0.70;;;;;;;;;;4966047;28;20179;-84
2021/05/05 02:54:46;;;;;;;0.90;0.50;;;;;;;;;;4977067;28;20623;-84
2021/05/05 02:57:50;;;;;;;0.57;0.40;;;;;;;;;;4965676;28;20187;-85
2021/05/05 03:00:55;;;;;;;1.10;0.53;;;;;;;;;;4976768;28;20522;-84
2021/05/05 03:03:59;;;;;;;0.53;0.50;;;;;;;;;;4977006;28;20206;-85
2021/05/05 03:07:03;;;;;;;1.93;0.77;;;;;;;;;;4975661;28;20186;-84
2021/05/05 03:10:09;;;;;;;2.27;0.67;;;;;;;;;;4965740;28;20183;-85
2021/05/05 03:13:13;;;;;;;1.47;0.50;;;;;;;;;;4973606;28;20661;-84
2021/05/05 03:16:17;;;;;;;0.87;0.70;;;;;;;;;;4990007;28;20217;-84
2021/05/05 03:19:22;;;;;;;2.17;0.63;;;;;;;;;;4983100;28;20182;-84
2021/05/05 03:22:26;;;;;;;2.70;0.93;;;;;;;;;;4971546;28;20202;-84
2021/05/05 03:25:30;;;;;;;3.23;0.93;;;;;;;;;;4983628;28;20234;-84
2021/05/05 03:28:35;;;;;;;1.23;0.67;;;;;;;;;;4969902;28;20190;-84
2021/05/05 03:31:39;;;;;;;2.00;0.80;;;;;;;;;;4971495;28;20182;-84
2021/05/05 03:34:43;;;;;;;1.03;0.67;;;;;;;;;;4994002;28;20179;-84
2021/05/05 03:37:48;;;;;;;1.47;0.57;;;;;;;;;;4971475;28;20198;-84
2021/05/05 03:40:52;;;;;;;4.50;0.80;;;;;;;;;;4971074;28;20198;-84
2021/05/05 03:43:57;;;;;;;2.40;0.80;;;;;;;;;;4982295;28;20218;-83
2021/05/05 03:47:01;;;;;;;1.47;0.70;;;;;;;;;;4982472;28;20190;-84
2021/05/05 03:50:07;;;;;;;3.33;0.90;;;;;;;;;;4982338;28;20182;-84
2021/05/05 03:53:11;;;;;;;2.27;0.90;;;;;;;;;;4971108;28;20529;-84
2021/05/05 03:56:15;;;;;;;1.40;0.80;;;;;;;;;;4971139;28;20527;-84
2021/05/05 03:59:20;;;;;;;2.20;0.90;;;;;;;;;;4993937;28;20248;-84
2021/05/05 04:02:24;;;;;;;3.23;1.23;;;;;;;;;;4973904;28;20214;-84
2021/05/05 04:05:29;;;;;;;1.67;0.90;;;;;;;;;;4962463;28;20207;-83
2021/05/05 04:08:33;;;;;;;1.63;1.00;;;;;;;;;;4962956;28;20195;-84
2021/05/05 04:11:37;;;;;;;1.87;1.00;;;;;;;;;;4963329;28;20179;-84
2021/05/05 04:14:43;;;;;;;4.47;1.10;;;;;;;;;;4997669;23;20233;-75
2021/05/05 04:17:47;;;;;;;1.47;0.90;;;;;;;;;;4982489;28;20218;-74
2021/05/05 04:20:53;;;;;;;7.13;1.13;;;;;;;;;;4994150;28;20198;-74
2021/05/05 04:23:57;;;;;;;4.83;1.17;;;;;;;;;;4964589;28;20584;-74
2021/05/05 04:27:01;;;;;;;2.87;1.20;;;;;;;;;;4975276;28;20222;-73
2021/05/05 04:30:06;;;;;;;4.17;1.30;;;;;;;;;;4976270;28;20194;-74
2021/05/05 04:33:11;;;;;;;4.33;1.20;;;;;;;;;;4975393;28;20183;-73
2021/05/05 04:36:15;;;;;;;5.00;1.33;;;;;;;;;;4989442;28;20229;-73
2021/05/05 04:39:19;;;;;;;6.37;1.97;;;;;;;;;;4993985;28;20190;-74
2021/05/05 04:42:24;;;;;;;4.97;2.60;;;;;;;;;;4993363;28;20192;-74
2021/05/05 04:45:28;;;;;;;8.53;3.23;;;;;;;;;;4971210;28;20533;-74
2021/05/05 04:48:33;;;;;;;5.30;2.67;;;;;;;;;;4982582;28;20179;-73
2021/05/05 04:51:39;;;;;;;80.43;37.83;;;;;;;;;;4963101;28;20183;-73
2021/05/05 04:54:43;;;;;;;10.13;4.23;;;;;;;;;;4974829;28;20190;-74
2021/05/05 04:57:47;;;;;;;4.37;2.63;;;;;;;;;;4974517;28;20218;-71
2021/05/05 05:00:51;;;;;;;10.10;5.70;;;;;;;;;;4989668;28;20194;-71
2021/05/05 05:03:55;;;;;;;6.30;3.43;;;;;;;;;;4993610;28;20210;-71
2021/05/05 05:06:59;;;;;;;4.20;1.80;;;;;;;;;;4994091;28;20221;-71
2021/05/05 05:10:05;;;;;;;6.30;1.60;;;;;;;;;;4983581;28;20198;-71
2021/05/05 05:13:09;;;;;;;2.27;1.27;;;;;;;;;;4992252;28;20634;-71
2021/05/05 05:16:14;;;;;;;2.47;1.13;;;;;;;;;;4975251;28;20705;-71
2021/05/05 05:19:18;;;;;;;1.57;0.60;;;;;;;;;;4981817;28;20202;-71
2021/05/05 05:22:22;;;;;;;3.90;1.13;;;;;;;;;;4994315;28;20506;-71
2021/05/05 05:25:27;;;;;;;2.53;1.10;;;;;;;;;;4993372;28;20209;-71
2021/05/05 05:28:31;;;;;;;1.80;1.10;;;;;;;;;;4992339;28;20198;-71
2021/05/05 05:31:35;;;;;;;1.77;1.63;;;;;;;;;;4966061;28;20203;-71
2021/05/05 05:34:39;;;;;;;5.37;3.33;;;;;;;;;;4972342;28;20187;-73
2021/05/05 05:37:44;;;;;;;12.73;3.53;;;;;;;;;;4979434;28;20566;-72
2021/05/05 05:40:48;;;;;;;2.77;1.17;;;;;;;;;;4974406;28;20206;-73
2021/05/05 05:43:52;;;;;;;3.30;1.40;;;;;;;;;;4975124;28;20214;-73
2021/05/05 05:46:56;;;;;;;1.97;1.00;;;;;;;;;;4979064;28;20214;-73
2021/05/05 05:50:00;;;;;;;1.60;1.00;;;;;;;;;;4979081;28;20179;-74
2021/05/05 05:53:05;;;;;;;2.80;1.00;;;;;;;;;;4993466;28;20205;-73
2021/05/05 05:56:09;;;;;;;1.97;0.73;;;;;;;;;;4992625;28;20222;-73
2021/05/05 05:59:13;;;;;;;1.13;1.00;;;;;;;;;;4974355;28;20182;-73
2021/05/05 06:02:18;;;;;;;5.63;1.40;;;;;;;;;;4973492;28;20206;-73
2021/05/05 06:05:23;;;;;;;4.60;3.47;;;;;;;;;;4979603;28;20222;-73
2021/05/05 06:08:27;;;;;;;4.80;2.13;;;;;;;;;;4964755;28;20195;-73
2021/05/05 06:11:31;;;;;;;2.57;1.83;;;;;;;;;;4962473;28;20290;-73
2021/05/05 06:14:35;;;;;;;2.70;1.70;;;;;;;;;;4993330;28;20206;-73
2021/05/05 06:17:39;;;;;;;4.10;1.60;;;;;;;;;;4983817;28;20215;-73
2021/05/05 06:20:44;;;;;;;3.73;1.23;;;;;;;;;;4962250;28;20179;-73
2021/05/05 06:23:48;;;;;;;4.23;1.37;;;;;;;;;;4979828;28;20214;-73
2021/05/05 06:26:52;;;;;;;5.23;1.10;;;;;;;;;;4987995;28;20210;-73
2021/05/05 06:29:56;;;;;;;2.30;1.20;;;;;;;;;;4975928;28;20634;-73
2021/05/05 06:33:00;;;;;;;1.83;1.07;;;;;;;;;;4993164;28;20183;-73
2021/05/05 06:36:05;;;;;;;2.80;1.70;;;;;;;;;;4993366;28;20210;-73
2021/05/05 06:39:11;;;;;;;4.43;1.97;;;;;;;;;;4993172;28;20516;-73
2021/05/05 06:42:16;;;;;;;2.37;1.67;;;;;;;;;;4993785;28;20529;-73
2021/05/05 06:45:20;;;;;;;1.60;1.17;;;;;;;;;;4996518;28;20210;-73
2021/05/05 06:48:24;;;;;;;2.27;1.00;;;;;;;;;;4984022;28;20585;-73
2021/05/05 06:51:28;;;;;;;2.43;1.00;;;;;;;;;;4980313;28;20565;-74
2021/05/05 06:54:33;;;;;;;19.33;15.53;;;;;;;;;;4986095;28;20675;-74
2021/05/05 06:57:38;;;;;;;8.83;6.50;;;;;;;;;;4966260;28;20222;-73
2021/05/05 07:00:42;;;;;;;4.17;3.77;;;;;;;;;;4959896;28;20533;-73
2021/05/05 07:03:47;;;;;;;3.33;2.77;;;;;;;;;;4988006;28;20197;-74
2021/05/05 07:06:51;;;;;;;6.70;3.43;;;;;;;;;;4978934;28;20612;-73
2021/05/05 07:09:56;;;;;;;4.03;1.33;;;;;;;;;;4982281;28;20182;-73
2021/05/05 07:13:01;;;;;;;2.73;1.90;;;;;;;;;;4993811;28;20649;-74
2021/05/05 07:16:05;;;;;;;2.03;1.50;;;;;;;;;;4988526;28;20222;-74
2021/05/05 07:19:09;;;;;;;4.57;1.70;;;;;;;;;;4976747;28;20180;-73
2021/05/05 07:22:13;;;;;;;2.93;2.60;;;;;;;;;;4970140;28;20187;-73
2021/05/05 07:25:17;;;;;;;2.30;1.83;;;;;;;;;;4971362;28;20207;-73
2021/05/05 07:28:22;;;;;;;3.93;2.13;;;;;;;;;;4996200;28;20588;-73
2021/05/05 07:31:26;;;;;;;2.17;1.40;;;;;;;;;;4972858;28;20198;-73
2021/05/05 07:34:30;;;;;;;2.07;1.40;;;;;;;;;;4989728;28;20191;-74
2021/05/05 07:42:06;;;;;;;3.00;1.70;;;;;;;;;;4977661;28;20195;-73
2021/05/05 07:47:40;;;;;;;1.70;1.07;;;;;;;;;;4982409;28;20264;-74
2021/05/05 07:50:44;;;;;;;2.23;1.80;;;;;;;;;;4983590;28;20182;-73
2021/05/05 07:53:49;;;;;;;2.27;1.17;;;;;;;;;;4990785;28;20193;-73
2021/05/05 07:56:53;;;;;;;1.40;1.30;;;;;;;;;;4987209;28;20225;-73
2021/05/05 07:59:57;;;;;;;2.03;1.30;;;;;;;;;;4983446;28;20553;-73
2021/05/05 08:03:02;;;;;;;1.87;1.10;;;;;;;;;;4977900;28;20198;-73
2021/05/05 08:06:07;;;;;;;1.70;0.87;;;;;;;;;;4980284;28;20234;-73
2021/05/05 08:09:11;;;;;;;1.27;0.80;;;;;;;;;;4978898;28;20190;-74
2021/05/05 08:12:16;;;;;;;0.80;0.60;;;;;;;;;;4968088;28;20211;-74
2021/05/05 08:15:21;;;;;;;1.70;1.00;;;;;;;;;;4982435;28;20202;-74
2021/05/05 08:18:25;;;;;;;1.30;0.90;;;;;;;;;;4995393;28;20193;-74
2021/05/05 08:21:30;;;;;;;1.70;1.00;;;;;;;;;;4980275;28;20190;-74
2021/05/05 08:24:34;;;;;;;1.00;0.80;;;;;;;;;;4976519;28;20206;-74
2021/05/05 08:27:38;;;;;;;1.00;0.90;;;;;;;;;;4990039;28;20662;-74
2021/05/05 08:30:42;;;;;;;2.70;1.33;;;;;;;;;;4975125;28;20650;-73
2021/05/05 08:33:46;;;;;;;2.40;1.57;;;;;;;;;;4975588;28;20183;-74
2021/05/05 08:36:52;;;;;;;2.30;0.83;;;;;;;;;;4984010;28;20209;-74
2021/05/05 08:39:56;;;;;;;2.50;1.70;;;;;;;;;;4994120;28;20190;-74
2021/05/05 08:43:00;;;;;;;2.07;1.50;;;;;;;;;;4994614;28;20198;-74
2021/05/05 08:46:08;;;;;;;2.77;1.53;;;;;;;;;;4981227;28;20977;-74
2021/05/05 08:49:14;;;;;;;4.83;3.23;;;;;;;;;;4982669;28;20202;-74
2021/05/05 08:52:19;;;;;;;1.50;1.00;;;;;;;;;;4963717;28;20250;-73
2021/05/05 08:55:25;;;;;;;3.20;1.40;;;;;;;;;;4972403;28;20186;-73
2021/05/05 08:58:30;;;;;;;2.47;0.83;;;;;;;;;;4993576;28;20201;-74
2021/05/05 09:01:35;;;;;;;2.20;1.00;;;;;;;;;;4994258;28;20186;-74
2021/05/05 09:04:39;;;;;;;3.47;0.90;;;;;;;;;;4974930;28;20214;-74
2021/05/05 09:07:44;;;;;;;2.20;1.00;;;;;;;;;;4974421;28;20222;-74
2021/05/05 09:10:59;;;;;;;1.23;0.83;;;;;;;;;;4962984;28;20187;-74
2021/05/05 09:14:04;;;;;;;4.93;1.30;;;;;;;;;;4962692;28;20563;-74
2021/05/05 09:17:16;;;;;;;3.60;1.10;;;;;;;;;;4981869;28;20221;-74
2021/05/05 09:20:23;;;;;;;6.47;1.37;;;;;;;;;;4978559;28;20202;-75
2021/05/05 09:23:28;;;;;;;1.17;1.00;;;;;;;;;;4974510;28;20175;-74
2021/05/05 09:26:35;;;;;;;5.83;2.37;;;;;;;;;;4991164;28;20229;-72
2021/05/05 09:29:42;;;;;;;5.53;1.43;;;;;;;;;;4986763;28;20187;-72
2021/05/05 09:32:50;;;;;;;3.97;1.47;;;;;;;;;;4974238;28;20186;-71
2021/05/05 09:35:56;;;;;;;4.77;1.30;;;;;;;;;;4973637;28;20226;-72
2021/05/05 09:39:04;;;;;;;3.13;0.90;;;;;;;;;;4980707;28;20626;-72
2021/05/05 09:42:18;;;;;;;3.17;1.47;;;;;;;;;;4972724;28;20199;-71
2021/05/05 09:45:31;;;;;;;5.60;1.90;;;;;;;;;;4980675;28;20618;-72
2021/05/05 09:48:36;;;;;;;4.17;1.83;;;;;;;;;;4987311;28;20206;-72
2021/05/05 09:51:56;;;;;;;6.90;1.63;;;;;;;;;;4973614;28;20194;-72
2021/05/05 09:55:03;;;;;;;5.30;1.80;;;;;;;;;;4992861;28;20182;-72
2021/05/05 09:58:26;;;;;;;9.87;4.67;;;;;;;;;;4988158;28;20195;-72
2021/05/05 10:01:30;;;;;;;5.30;2.17;;;;;;;;;;4974226;28;20202;-71
2021/05/05 10:04:34;;;;;;;5.37;1.80;;;;;;;;;;4978813;28;20202;-72
2021/05/05 10:08:09;;;;;;;9.70;3.47;;;;;;;;;;4969581;28;20227;-71
2021/05/05 10:11:20;;;;;;;4.27;1.13;;;;;;;;;;4974093;28;20195;-72
2021/05/05 10:14:25;;;;;;;5.93;2.00;;;;;;;;;;4979825;28;20206;-72
2021/05/05 10:17:29;;;;;;;3.43;1.73;;;;;;;;;;4985443;28;20229;-72
2021/05/05 10:20:34;;;;;;;4.80;2.27;;;;;;;;;;4974144;28;20178;-72
2021/05/05 10:23:39;;;;;;;4.10;1.90;;;;;;;;;;4990972;28;20214;-73
2021/05/05 10:26:44;;;;;;;8.60;2.50;;;;;;;;;;4981362;28;20230;-72
2021/05/05 10:29:50;;;;;;;7.53;1.83;;;;;;;;;;4996871;28;20183;-72
2021/05/05 10:32:54;;;;;;;3.23;1.10;;;;;;;;;;4996203;28;20191;-72
2021/05/05 10:36:26;;;;;;;4.53;1.53;;;;;;;;;;4990426;28;20221;-72
2021/05/05 10:39:33;;;;;;;7.00;1.07;;;;;;;;;;4987387;28;20190;-72
2021/05/05 10:42:48;;;;;;;4.10;1.57;;;;;;;;;;4984645;28;20183;-72
2021/05/05 10:45:52;;;;;;;3.67;1.20;;;;;;;;;;4988554;28;20226;-72
2021/05/05 10:49:16;;;;;;;4.10;1.33;;;;;;;;;;4996483;28;20206;-72
2021/05/05 10:52:20;;;;;;;12.30;1.60;;;;;;;;;;4993987;28;20182;-75
2021/05/05 10:55:39;;;;;;;3.00;1.10;;;;;;;;;;4976733;28;20199;-75
2021/05/05 10:58:58;;;;;;;2.73;1.20;;;;;;;;;;4977267;28;20190;-75
2021/05/05 11:02:39;;;;;;;4.17;1.30;;;;;;;;;;4964110;28;20199;-76
2021/05/05 11:05:45;;;;;;;5.97;1.60;;;;;;;;;;4988031;28;20217;-76
2021/05/05 11:08:49;;;;;;;7.97;2.37;;;;;;;;;;4993500;28;20190;-75
2021/05/05 11:11:53;;;;;;;2.63;1.23;;;;;;;;;;4982610;28;20559;-75
2021/05/05 11:14:58;;;;;;;9.00;1.47;;;;;;;;;;4987692;28;20218;-75
2021/05/05 11:18:24;;;;;;;3.00;1.30;;;;;;;;;;4979470;28;20660;-75
2021/05/05 11:21:30;;;;;;;2.97;1.03;;;;;;;;;;4989069;28;20535;-75
2021/05/05 11:24:39;;;;;;;2.07;1.03;;;;;;;;;;5033141;23;20714;-84
2021/05/05 11:27:51;;;;;;;3.07;1.00;;;;;;;;;;4991895;28;20194;-83
2021/05/05 11:30:57;;;;;;;3.80;1.20;;;;;;;;;;5003752;28;20185;-83
2021/05/05 11:34:03;;;;;;;2.00;1.10;;;;;;;;;;5008083;28;20229;-83
2021/05/05 11:37:17;;;;;;;3.47;0.93;;;;;;;;;;5003733;28;20193;-83
2021/05/05 11:40:21;;;;;;;4.97;1.30;;;;;;;;;;5003690;28;20186;-83
2021/05/05 11:43:27;;;;;;;5.60;1.43;;;;;;;;;;5003629;28;20213;-83
2021/05/05 11:46:31;;;;;;;6.70;1.80;;;;;;;;;;4992793;28;20680;-83
2021/05/05 11:50:14;;;;;;;3.87;1.30;;;;;;;;;;5000080;28;20209;-84
2021/05/05 11:53:32;;;;;;;3.70;1.33;;;;;;;;;;5003464;28;20225;-83
2021/05/05 11:56:38;;;;;;;3.50;1.40;;;;;;;;;;4992356;28;20201;-84
2021/05/05 11:59:42;;;;;;;2.27;1.20;;;;;;;;;;4992606;28;20644;-84
2021/05/05 12:02:49;;;;;;;5.97;1.50;;;;;;;;;;5004535;28;20196;-84
2021/05/05 12:05:55;;;;;;;4.83;1.50;;;;;;;;;;5003804;28;20205;-83
2021/05/05 12:08:59;;;;;;;5.07;1.30;;;;;;;;;;5015196;28;20178;-84
2021/05/05 12:12:30;;;;;;;2.60;1.40;;;;;;;;;;4991622;28;20197;-83
2021/05/05 12:15:37;;;;;;;3.17;1.10;;;;;;;;;;4992160;28;20186;-85
2021/05/05 12:18:49;;;;;;;2.57;1.07;;;;;;;;;;5014390;28;20173;-84
2021/05/05 12:21:53;;;;;;;3.27;1.43;;;;;;;;;;4992051;28;20186;-84
2021/05/05 12:25:11;;;;;;;3.33;1.30;;;;;;;;;;5014165;28;20232;-84
2021/05/05 12:28:17;;;;;;;4.80;1.53;;;;;;;;;;5014371;28;20174;-83
2021/05/05 12:31:23;;;;;;;3.07;1.10;;;;;;;;;;4996545;28;20189;-83
2021/05/05 12:34:27;;;;;;;2.63;1.30;;;;;;;;;;5014346;28;20221;-84
2021/05/05 12:37:31;;;;;;;2.93;1.00;;;;;;;;;;4983205;28;20194;-84
2021/05/05 12:40:37;;;;;;;6.00;2.00;;;;;;;;;;4985556;28;20555;-84
2021/05/05 12:43:45;;;;;;;2.87;0.90;;;;;;;;;;4991259;28;20213;-84
2021/05/05 12:47:06;;;;;;;4.43;0.90;;;;;;;;;;5013746;28;20210;-83
2021/05/05 12:50:12;;;;;;;3.27;1.03;;;;;;;;;;5002289;28;20190;-84
2021/05/05 12:53:16;;;;;;;3.73;0.90;;;;;;;;;;5002753;28;20221;-83
2021/05/05 12:56:48;;;;;;;4.00;1.10;;;;;;;;;;5002385;28;20189;-83
2021/05/05 12:59:53;;;;;;;5.90;1.13;;;;;;;;;;5002690;28;20181;-83
2021/05/05 13:02:59;;;;;;;1.53;1.00;;;;;;;;;;4991316;28;20201;-84
2021/05/05 13:06:05;;;;;;;3.40;1.20;;;;;;;;;;5002367;28;20679;-83
2021/05/05 13:09:21;;;;;;;2.60;1.00;;;;;;;;;;4973344;28;20185;-84
2021/05/05 13:12:36;;;;;;;3.27;1.10;;;;;;;;;;5002839;28;20177;-83
2021/05/05 13:29:50;;;;;;;2.07;1.20;;;;;;;;;;4994154;28;20190;-84
2021/05/05 13:32:59;;;;;;;3.87;1.00;;;;;;;;;;4993910;28;20182;-84
2021/05/05 13:36:03;;;;;;;4.40;1.33;;;;;;;;;;4982836;28;20182;-83
2021/05/05 13:39:07;;;;;;;3.77;1.37;;;;;;;;;;4982391;28;20197;-83
2021/05/05 13:42:12;;;;;;;3.07;1.07;;;;;;;;;;4994018;28;20206;-84
2021/05/05 13:45:18;;;;;;;3.80;1.50;;;;;;;;;;4982700;28;20178;-83
2021/05/05 13:51:44;;;;;;;3.53;1.10;;;;;;;;;;5015868;28;20177;-83
2021/05/05 13:54:49;;;;;;;1.67;0.60;;;;;;;;;;5006086;28;20565;-84
2021/05/05 13:57:53;;;;;;;2.77;0.63;;;;;;;;;;4994487;28;20193;-83
2021/05/05 14:00:57;;;;;;;0.97;0.70;;;;;;;;;;4994713;28;20197;-83
2021/05/05 14:04:02;;;;;;;1.13;0.67;;;;;;;;;;5017829;28;20221;-84
2021/05/05 14:07:09;;;;;;;1.70;1.23;;;;;;;;;;4994680;28;20217;-83
2021/05/05 14:10:13;;;;;;;3.43;1.13;;;;;;;;;;5018593;28;20197;-84
2021/05/05 14:13:18;;;;;;;1.27;0.63;;;;;;;;;;5007032;28;20225;-84
2021/05/05 14:16:22;;;;;;;1.40;0.70;;;;;;;;;;5018580;28;20537;-85
2021/05/05 14:19:27;;;;;;;2.23;0.70;;;;;;;;;;5006977;28;20525;-85
2021/05/05 14:22:31;;;;;;;1.00;0.73;;;;;;;;;;5007594;28;20181;-86
2021/05/05 14:25:35;;;;;;;1.97;1.07;;;;;;;;;;5019761;28;20662;-84
2021/05/05 14:28:40;;;;;;;2.97;0.80;;;;;;;;;;5010243;28;20185;-85
2021/05/05 14:31:45;;;;;;;2.20;0.60;;;;;;;;;;5009657;28;20182;-84
2021/05/05 14:34:49;;;;;;;1.07;0.77;;;;;;;;;;5009584;28;20224;-85
2021/05/05 14:38:00;;;;;;;0.60;0.50;;;;;;;;;;5021128;28;20177;-84
2021/05/05 14:41:09;;;;;;;4.03;1.20;;;;;;;;;;5010696;28;20185;-85
2021/05/05 14:44:20;;;;;;;2.70;1.10;;;;;;;;;;5009735;28;20218;-84
2021/05/05 14:47:54;;;;;;;1.43;0.70;;;;;;;;;;5010544;28;20210;-84
2021/05/05 14:50:49;;;;;;;1.37;0.73;;;;;;;;;;5020286;28;20193;-84
2021/05/05 14:53:53;;;;;;;2.10;1.10;;;;;;;;;;5024049;28;20217;-85
2021/05/05 14:56:57;;;;;;;0.87;0.67;;;;;;;;;;5002016;28;20170;-82
2021/05/05 15:00:07;;;;;;;1.50;0.63;;;;;;;;;;5009642;28;20181;-84
2021/05/05 15:03:11;;;;;;;2.13;0.90;;;;;;;;;;4998738;28;20217;-85
2021/05/05 15:06:21;;;;;;;1.00;0.60;;;;;;;;;;5009855;28;20181;-84
2021/05/05 15:09:52;;;;;;;2.53;0.80;;;;;;;;;;5009920;28;20181;-85
2021/05/05 15:13:20;;;;;;;2.07;0.77;;;;;;;;;;4998382;28;20182;-84
2021/05/05 15:16:55;;;;;;;5.07;0.73;;;;;;;;;;4998880;28;20182;-84
2021/05/05 15:36:39;;;;;;;7.20;3.43;;;;;;;;;;5002096;28;20185;-84
2021/05/05 15:39:48;;;;;;;2.67;0.87;;;;;;;;;;4991038;28;20181;-85
2021/05/05 15:43:01;;;;;;;5.47;1.00;;;;;;;;;;5001817;28;20648;-84
2021/05/05 15:49:10;;;;;;;1.20;0.60;;;;;;;;;;5014196;28;20181;-84
2021/05/05 15:52:15;;;;;;;1.60;0.80;;;;;;;;;;4990930;28;20181;-85
2021/05/05 15:55:20;;;;;;;12.23;3.03;;;;;;;;;;5013325;28;20186;-84
2021/05/05 15:58:27;;;;;;;1.40;0.80;;;;;;;;;;5002017;28;20186;-84
2021/05/05 16:04:58;;;;;;;4.53;0.87;;;;;;;;;;4970912;28;20217;-85
2021/05/05 16:17:53;;;;;;;3.30;0.70;;;;;;;;;;4989773;28;20640;-84
2021/05/05 16:21:04;;;;;;;3.27;0.93;;;;;;;;;;5000921;28;20541;-84
2021/05/05 16:31:50;;;;;;;0.70;0.60;;;;;;;;;;4992737;28;20178;-80
2021/05/05 16:47:41;;;;;;;1.80;0.90;;;;;;;;;;5000380;28;20217;-80
2021/05/05 17:01:21;;;;;;;1.67;1.00;;;;;;;;;;5016056;28;20186;-80
2021/05/05 17:04:57;;;;;;;0.77;0.60;;;;;;;;;;5007980;28;20218;-85
2021/05/05 17:10:25;;;;;;;0.70;0.63;;;;;;;;;;5003586;28;20193;-85
2021/05/05 17:13:29;;;;;;;1.47;1.00;;;;;;;;;;5015035;28;20565;-84
2021/05/05 17:16:33;;;;;;;2.30;1.47;;;;;;;;;;5003979;28;20192;-85
2021/05/05 17:19:43;;;;;;;2.03;1.17;;;;;;;;;;4992671;28;20186;-83
2021/05/05 17:43:06;;;;;;;2.33;0.80;;;;;;;;;;5003533;28;20182;-83
2021/05/05 18:13:20;;;;;;;0.70;0.70;;;;;;;;;;5016644;28;20213;-83
2021/05/05 18:19:32;;;;;;;1.77;0.80;;;;;;;;;;4990953;28;20177;-82
2021/05/05 18:31:58;;;;;;;2.00;0.83;;;;;;;;;;4994899;28;20182;-82
2021/05/05 18:35:03;;;;;;;4.60;0.90;;;;;;;;;;4982767;28;20218;-83
2021/05/05 18:38:07;;;;;;;2.03;1.10;;;;;;;;;;4997439;28;20194;-82
2021/05/05 18:41:25;;;;;;;3.10;1.10;;;;;;;;;;5003223;28;20189;-83
2021/05/05 19:39:11;;;;;;;2.03;1.10;;;;;;;;;;5008695;28;20190;-83
2021/05/05 20:27:15;;;;;;;2.63;1.00;;;;;;;;;;4995612;28;20187;-86
2021/05/05 20:48:07;;;;;;;1.97;1.10;;;;;;;;;;4977067;28;20178;-86
2021/05/05 21:24:17;;;;;;;2.53;1.33;;;;;;;;;;4993346;28;20194;-85
2021/05/05 22:48:33;;;;;;;3.90;0.90;;;;;;;;;;4995265;28;20545;-85
2021/05/05 23:24:01;;;;;;;1.80;0.90;;;;;;;;;;4983356;28;20622;-87
2021/05/05 23:27:06;;;;;;;3.60;1.20;;;;;;;;;;4973534;28;20555;-87
2021/05/05 23:30:39;;;;;;;3.90;1.00;;;;;;;;;;4973016;28;20228;-87
2021/05/05 23:57:28;;;;;;;2.57;1.40;;;;;;;;;;4964753;28;20581;-87
